Elegance — PBGJ — position and weather

sailwx.info

Track history (hours):
 
Tides and Currents Weather Stations Pressure Air Temp Water Temp Dewpoint Dewpoint Depression Visibility Wind Speed Wind Dir Waves Ship Positions

Elegance

Last reported at 2017-Dec-10 16:42 UTC. Time now 2017-Dec-14 08:22 UTC.
Position N 26°05' W 080°07'.

Type: Cargo ship. MMSI: 244317000.

Date/timePositionNaut miles runAvg speedWind from/ knotsBaromVisibWave heightAir tempDewpointWater temp
2017-Dec-10 16:42N 26°05' W 080°07'0 0.1
2017-Dec-10 16:27N 26°05' W 080°07'0 0.0
2017-Dec-10 16:00N 26°05' W 080°07'0 0.0
2017-Dec-10 15:30N 26°05' W 080°07'0 0.0
2017-Dec-10 15:00N 26°05' W 080°07'0 0.0
2017-Dec-10 14:30N 26°05' W 080°07'0 0.0
2017-Dec-10 14:00N 26°05' W 080°07'0 0.0
2017-Dec-10 13:30N 26°05' W 080°07'0 0.0
2017-Dec-10 13:00N 26°05' W 080°07'0 0.0
2017-Dec-10 12:30N 26°05' W 080°07'0 0.1
2017-Dec-10 12:00N 26°05' W 080°07'1 1.3
2017-Dec-10 11:30N 26°06' W 080°07'2 4.0
2017-Dec-10 11:00N 26°06' W 080°04'5 9.1
2017-Dec-10 10:30N 26°06' W 079°59'612.3
2017-Dec-10 10:01N 26°06' W 079°53'816.5
2017-Dec-10 09:31N 26°08' W 079°44'816.2
2017-Dec-10 09:01N 26°09' W 079°35'816.4
2017-Dec-10 08:31N 26°10' W 079°26'816.6
2017-Dec-10 08:01N 26°12' W 079°17'  
2017-Dec-07 05:15N 17°53' W 063°37'414.1
2017-Dec-07 04:56N 17°51' W 063°33'613.9
2017-Dec-07 04:30N 17°49' W 063°27'714.0
2017-Dec-07 03:59N 17°46' W 063°20'714.2
2017-Dec-07 03:30N 17°44' W 063°13'714.3
2017-Dec-07 03:00N 17°41' W 063°06'714.3
2017-Dec-07 02:30N 17°38' W 062°59'814.6
2017-Dec-07 01:57N 17°34' W 062°52'1814.0
2017-Dec-07 00:40N 17°27' W 062°35'314.1
2017-Dec-07 00:29N 17°26' W 062°32'714.2
2017-Dec-07 00:00N 17°23' W 062°26'713.9
2017-Dec-06 23:30N 17°20' W 062°19'714.2
2017-Dec-06 23:00N 17°17' W 062°12'714.0
2017-Dec-06 22:31N 17°14' W 062°06'714.0
2017-Dec-06 22:00N 17°11' W 061°59'713.1
2017-Dec-06 21:30N 17°08' W 061°53'2 4.0
2017-Dec-06 20:59N 17°07' W 061°51'  
2017-Dec-04 01:15N 13°35' W 060°56'27 6.4
2017-Dec-03 21:04N 14°01' W 061°02'0 8.2
2017-Dec-03 21:00N 14°01' W 061°01'2 2.5
2017-Dec-03 20:22N 14°01' W 060°60'0 0.0
2017-Dec-03 19:58N 14°01' W 060°60'0 0.0
2017-Dec-03 19:25N 14°01' W 060°60'0 0.0
2017-Dec-03 18:58N 14°01' W 060°60'0 0.0
2017-Dec-03 18:25N 14°01' W 060°60'0 0.0
2017-Dec-03 17:58N 14°01' W 060°60'0 0.0
2017-Dec-03 17:25N 14°01' W 060°60'0 0.0
2017-Dec-03 16:55N 14°01' W 060°60'0 0.0
2017-Dec-03 16:25N 14°01' W 060°60'0 0.0
2017-Dec-03 15:46N 14°01' W 060°60'0 0.0
2017-Dec-03 15:25N 14°01' W 060°60'0 0.0
2017-Dec-03 14:49N 14°01' W 060°60'0 0.0
2017-Dec-03 14:28N 14°01' W 060°60'0 0.0
2017-Dec-03 13:58N 14°01' W 060°60'0 0.0
2017-Dec-03 13:25N 14°01' W 060°60'0 0.0
2017-Dec-03 12:55N 14°01' W 060°60'0 0.0
2017-Dec-03 12:29N 14°01' W 060°60'1 2.4
2017-Dec-03 12:01N 14°01' W 061°01'612.5
2017-Dec-03 11:30N 14°05' W 061°06'713.6
2017-Dec-03 11:00N 14°10' W 061°10'713.5
2017-Dec-03 10:30N 14°15' W 061°15'713.8
2017-Dec-03 10:00N 14°21' W 061°20'814.2
2017-Dec-03 09:28N 14°27' W 061°25'714.4
2017-Dec-03 09:00N 14°33' W 061°27'714.4
2017-Dec-03 08:30N 14°39' W 061°30'1815.0
2017-Dec-03 07:17N 14°56' W 061°39'4215.1
2017-Dec-03 04:30N 15°34' W 061°57'1115.7
2017-Dec-03 03:49N 15°43' W 062°02'515.5
2017-Dec-03 03:29N 15°48' W 062°04'1014.9
2017-Dec-03 02:50N 15°57' W 062°09'515.0
2017-Dec-03 02:30N 16°01' W 062°11'714.9
2017-Dec-03 02:01N 16°08' W 062°14'714.6
2017-Dec-03 01:31N 16°14' W 062°17'815.0
2017-Dec-03 01:01N 16°21' W 062°21'715.0
2017-Dec-03 00:31N 16°28' W 062°24'815.1
2017-Dec-03 00:00N 16°35' W 062°27'815.7
2017-Dec-02 23:31N 16°42' W 062°31'816.1
2017-Dec-02 23:01N 16°49' W 062°34'2615.6
2017-Dec-02 21:22N 17°13' W 062°43'3 9.6
2017-Dec-02 21:00N 17°17' W 062°43'0 0.0
2017-Dec-02 11:47N 17°17' W 062°43'4 7.9
2017-Dec-02 11:15N 17°16' W 062°47'416.0
2017-Dec-02 11:00N 17°18' W 062°51'1620.4
2017-Dec-02 10:14N 17°28' W 063°03'1320.4
2017-Dec-02 09:36N 17°39' W 063°10'920.7
2017-Dec-02 09:09N 17°47' W 063°15'820.0
2017-Dec-02 08:46N 17°53' W 063°21'520.4
2017-Dec-02 08:30N 17°57' W 063°24'  
Track history (hours):
 
Tides and Currents Weather Stations Pressure Air Temp Water Temp Dewpoint Dewpoint Depression Visibility Wind Speed Wind Dir Waves Ship Positions

Elegance

Last reported at 2017-Dec-10 16:42 UTC. Time now 2017-Dec-14 08:22 UTC.
Position N 26°05' W 080°07'.

Type: Cargo ship. MMSI: 244317000.

Date/timePositionNaut miles runAvg speedWind from/ knotsBaromVisibWave heightAir tempDewpointWater temp
2017-Dec-10 16:42N 26°05' W 080°07'0 0.1
2017-Dec-10 16:27N 26°05' W 080°07'0 0.0
2017-Dec-10 16:00N 26°05' W 080°07'0 0.0
2017-Dec-10 15:30N 26°05' W 080°07'0 0.0
2017-Dec-10 15:00N 26°05' W 080°07'0 0.0
2017-Dec-10 14:30N 26°05' W 080°07'0 0.0
2017-Dec-10 14:00N 26°05' W 080°07'0 0.0
2017-Dec-10 13:30N 26°05' W 080°07'0 0.0
2017-Dec-10 13:00N 26°05' W 080°07'0 0.0
2017-Dec-10 12:30N 26°05' W 080°07'0 0.1
2017-Dec-10 12:00N 26°05' W 080°07'1 1.3
2017-Dec-10 11:30N 26°06' W 080°07'2 4.0
2017-Dec-10 11:00N 26°06' W 080°04'5 9.1
2017-Dec-10 10:30N 26°06' W 079°59'612.3
2017-Dec-10 10:01N 26°06' W 079°53'816.5
2017-Dec-10 09:31N 26°08' W 079°44'816.2
2017-Dec-10 09:01N 26°09' W 079°35'816.4
2017-Dec-10 08:31N 26°10' W 079°26'816.6
2017-Dec-10 08:01N 26°12' W 079°17'  
2017-Dec-07 05:15N 17°53' W 063°37'414.1
2017-Dec-07 04:56N 17°51' W 063°33'613.9
2017-Dec-07 04:30N 17°49' W 063°27'714.0
2017-Dec-07 03:59N 17°46' W 063°20'714.2
2017-Dec-07 03:30N 17°44' W 063°13'714.3
2017-Dec-07 03:00N 17°41' W 063°06'714.3
2017-Dec-07 02:30N 17°38' W 062°59'814.6
2017-Dec-07 01:57N 17°34' W 062°52'1814.0
2017-Dec-07 00:40N 17°27' W 062°35'314.1
2017-Dec-07 00:29N 17°26' W 062°32'714.2
2017-Dec-07 00:00N 17°23' W 062°26'713.9
2017-Dec-06 23:30N 17°20' W 062°19'714.2
2017-Dec-06 23:00N 17°17' W 062°12'714.0
2017-Dec-06 22:31N 17°14' W 062°06'714.0
2017-Dec-06 22:00N 17°11' W 061°59'713.1
2017-Dec-06 21:30N 17°08' W 061°53'2 4.0
2017-Dec-06 20:59N 17°07' W 061°51'  
2017-Dec-04 01:15N 13°35' W 060°56'27 6.4
2017-Dec-03 21:04N 14°01' W 061°02'0 8.2
2017-Dec-03 21:00N 14°01' W 061°01'2 2.5
2017-Dec-03 20:22N 14°01' W 060°60'0 0.0
2017-Dec-03 19:58N 14°01' W 060°60'0 0.0
2017-Dec-03 19:25N 14°01' W 060°60'0 0.0
2017-Dec-03 18:58N 14°01' W 060°60'0 0.0
2017-Dec-03 18:25N 14°01' W 060°60'0 0.0
2017-Dec-03 17:58N 14°01' W 060°60'0 0.0
2017-Dec-03 17:25N 14°01' W 060°60'0 0.0
2017-Dec-03 16:55N 14°01' W 060°60'0 0.0
2017-Dec-03 16:25N 14°01' W 060°60'0 0.0
2017-Dec-03 15:46N 14°01' W 060°60'0 0.0
2017-Dec-03 15:25N 14°01' W 060°60'0 0.0
2017-Dec-03 14:49N 14°01' W 060°60'0 0.0
2017-Dec-03 14:28N 14°01' W 060°60'0 0.0
2017-Dec-03 13:58N 14°01' W 060°60'0 0.0
2017-Dec-03 13:25N 14°01' W 060°60'0 0.0
2017-Dec-03 12:55N 14°01' W 060°60'0 0.0
2017-Dec-03 12:29N 14°01' W 060°60'1 2.4
2017-Dec-03 12:01N 14°01' W 061°01'612.5
2017-Dec-03 11:30N 14°05' W 061°06'713.6
2017-Dec-03 11:00N 14°10' W 061°10'713.5
2017-Dec-03 10:30N 14°15' W 061°15'713.8
2017-Dec-03 10:00N 14°21' W 061°20'814.2
2017-Dec-03 09:28N 14°27' W 061°25'714.4
2017-Dec-03 09:00N 14°33' W 061°27'714.4
2017-Dec-03 08:30N 14°39' W 061°30'1815.0
2017-Dec-03 07:17N 14°56' W 061°39'4215.1
2017-Dec-03 04:30N 15°34' W 061°57'1115.7
2017-Dec-03 03:49N 15°43' W 062°02'515.5
2017-Dec-03 03:29N 15°48' W 062°04'1014.9
2017-Dec-03 02:50N 15°57' W 062°09'515.0
2017-Dec-03 02:30N 16°01' W 062°11'714.9
2017-Dec-03 02:01N 16°08' W 062°14'714.6
2017-Dec-03 01:31N 16°14' W 062°17'815.0
2017-Dec-03 01:01N 16°21' W 062°21'715.0
2017-Dec-03 00:31N 16°28' W 062°24'815.1
2017-Dec-03 00:00N 16°35' W 062°27'815.7
2017-Dec-02 23:31N 16°42' W 062°31'816.1
2017-Dec-02 23:01N 16°49' W 062°34'2615.6
2017-Dec-02 21:22N 17°13' W 062°43'3 9.6
2017-Dec-02 21:00N 17°17' W 062°43'0 0.0
2017-Dec-02 11:47N 17°17' W 062°43'4 7.9
2017-Dec-02 11:15N 17°16' W 062°47'416.0
2017-Dec-02 11:00N 17°18' W 062°51'1620.4
2017-Dec-02 10:14N 17°28' W 063°03'1320.4
2017-Dec-02 09:36N 17°39' W 063°10'920.7
2017-Dec-02 09:09N 17°47' W 063°15'820.0
2017-Dec-02 08:46N 17°53' W 063°21'520.4
2017-Dec-02 08:30N 17°57' W 063°24'  

Dump ship's entire track history